Terminal Aerodrome Forecast
Issued by NWS Louisville, KY

Home | Current Version | Previous Version | Text Only | Print | Product List | Glossary On
Versions: 1 2 3 4 5 6 7 8 9 10 11 12 13 14 15 16 17 18 19 20
000
FTUS43 KLMK 300836 AAA
TAFBWG
TAF AMD
KBWG 300836Z 3009/3106 VRB03KT P6SM VCSH FEW050 SCT070 BKN250
      TEMPO 3009/3010 5SM -SHRA BKN040
     FM301000 VRB03KT P6SM FEW050 SCT250
      TEMPO 3011/3014 3SM BR
     FM301600 26008KT P6SM SCT060
     FM310000 VRB05KT P6SM FEW080 SCT250=

USA.gov is the U.S. government's official web portal to all federal, state and local government web resources and services.